1982 NANCY (1982283N16148)


On this page: IBTrACS data - Map and Plots - Positions - Intensities - Original source data

Summary

Start Oct 10
End Oct 20
Basin WP
LMI 115 kt
Sources jtwc_wp
tokyo
cma
hko
td9636
In WMO? Yes
Previous storm 1982 ERNESTO (NA)
Previous in basin 1982 MAC (WP)
Concurrent storms 1982 MAC (WP)
1982 NANCY (WP)
1982 OWEN (WP)
1982 TD1015 (WP)
1982 SERGIO (EP)
1982 MISSING (NI)
1982 MISSING (WP)
1982 MISSING (NI)
1982 TARA (EP)
Next in basin 1982 OWEN (WP)
Next storm 1982 OWEN (WP)

top of page IBTrACS Data: File Access

top of page HURSAT Data: File Access

Image of storm

top of page Plots:

Map of storm track will not appear if FTP is down
Time series of cyclone Maximum Sustained Wind will not appear if FTP is down
Time series of cyclone Minimum Central Pressure will not appear if FTP is down

top of page Track Data:Position

jtwc_wp tokyo cma hko td9636
Date Lat Lon Lat Lon Lat Lon Lat Lon Lat Lon
1982-10-10 00:00:00 17.0 147.5 13.5 148.5 16.0 149.1
1982-10-10 06:00:00 16.1 146.2 16.0 146.0 14.0 146.5 16.0 146.7
1982-10-10 12:00:00 16.0 144.5 16.0 144.5 14.6 144.7 16.0 144.5
1982-10-10 18:00:00 15.8 142.9 16.0 143.0 15.0 143.2 15.9 142.8
1982-10-11 00:00:00 15.9 141.3 16.0 141.5 15.6 141.6 15.9 141.5 15.9 141.3
1982-10-11 06:00:00 16.2 139.9 16.2 139.9 16.2 139.9 16.2 140.0 16.1 139.9
1982-10-11 12:00:00 16.2 138.5 16.2 138.5 15.9 138.5 16.0 138.5 16.2 138.5
1982-10-11 18:00:00 16.0 137.0 16.0 137.1 15.8 137.1 15.9 137.0 16.1 137.1
1982-10-12 00:00:00 15.9 135.7 15.9 135.6 15.9 135.6 15.9 135.6 15.9 135.7
1982-10-12 06:00:00 15.9 134.2 15.9 134.4 15.9 134.3 16.0 134.3 15.8 134.3
1982-10-12 12:00:00 15.9 132.9 16.0 133.0 16.0 132.9 16.1 133.0 15.9 132.9
1982-10-12 18:00:00 16.2 131.7 16.1 131.6 16.1 131.4 16.2 131.7 16.1 131.7
1982-10-13 00:00:00 16.4 130.5 16.3 130.6 16.4 130.5 16.4 130.5 16.4 130.5
1982-10-13 06:00:00 16.7 129.3 16.6 129.5 16.7 129.5 16.6 129.5 16.7 129.3
1982-10-13 12:00:00 17.1 128.0 16.9 128.1 17.1 128.1 16.9 128.1 17.1 128.0
1982-10-13 18:00:00 17.4 126.6 17.3 126.6 17.6 126.5 17.4 126.6 17.5 126.5
1982-10-14 00:00:00 17.7 125.0 17.8 125.0 17.7 125.0 17.8 125.0 17.7 125.0
1982-10-14 06:00:00 17.6 123.5 17.6 123.6 17.8 123.6 17.7 123.6 17.5 123.6
1982-10-14 12:00:00 17.3 122.2 17.5 122.3 17.6 122.3 17.6 122.3 17.3 122.2
1982-10-14 18:00:00 17.4 120.9 17.4 120.8 17.7 121.0 17.5 121.0 17.4 120.9
1982-10-15 00:00:00 17.5 119.7 17.4 119.5 17.6 119.7 17.4 119.7 17.5 119.7
1982-10-15 06:00:00 17.3 118.5 17.3 118.5 17.5 118.3 17.3 118.4 17.4 118.5
1982-10-15 12:00:00 17.2 117.3 17.0 117.3 17.3 117.2 17.1 117.2 17.2 117.3
1982-10-15 18:00:00 17.1 116.2 17.0 116.1 17.1 116.0 17.0 116.0 17.0 116.0
1982-10-16 00:00:00 16.9 114.7 16.9 114.7 16.8 114.6 16.9 114.7 16.9 114.7
jtwc_wp tokyo cma hko td9636
1982-10-16 06:00:00 16.9 113.3 16.9 113.5 16.8 113.4 16.9 113.5 16.9 113.3
1982-10-16 12:00:00 17.0 112.0 17.1 112.4 17.0 112.2 16.9 112.4 17.0 112.0
1982-10-16 18:00:00 17.2 111.0 17.3 111.3 17.1 110.9 17.1 111.1 17.2 110.9
1982-10-17 00:00:00 17.5 109.9 17.5 110.0 17.6 110.0 17.5 109.9 17.5 109.9
1982-10-17 06:00:00 17.8 108.7 17.7 108.9 17.9 108.9 18.0 108.8 17.9 108.8
1982-10-17 12:00:00 18.3 107.8 18.2 107.7 18.6 107.8 18.4 107.9 18.3 107.8
1982-10-17 18:00:00 18.8 106.9 18.9 107.0 18.9 107.0 18.8 107.0 18.7 106.9
1982-10-18 00:00:00 19.0 106.0 18.8 106.2 19.0 106.0 19.0 106.2 19.0 106.0
1982-10-18 06:00:00 19.0 105.2 19.0 106.0 19.0 105.4 19.0 105.5
1982-10-18 12:00:00 19.0 105.5 19.0 105.4 18.9 104.8
1982-10-18 18:00:00 19.0 105.0 18.6 104.6 18.8 104.6
1982-10-19 00:00:00 19.0 104.5 17.0 103.0
1982-10-19 06:00:00 19.0 104.0 16.0 102.5
1982-10-19 12:00:00 19.0 103.0
1982-10-19 18:00:00 19.0 103.0
1982-10-20 00:00:00 19.0 103.0

top of pageTrack Data:Intensity

jtwc_wp tokyo cma hko td9636
Date Wind Pres Wind Pres Wind Pres Wind Pres Wind Pres
1982-10-10 00:00:00 1006. 19. 1008.
1982-10-10 06:00:00 15. 1006. 23. 1006.
1982-10-10 12:00:00 20. 1006. 23. 1004. 20.
1982-10-10 18:00:00 25. 1004. 23. 1004. 20.
1982-10-11 00:00:00 30. 1002. 29. 1002. 25. 1006. 30.
1982-10-11 06:00:00 35. 35. 998. 39. 998. 35. 999. 30.
1982-10-11 12:00:00 40. 40. 996. 39. 998. 35. 998. 40.
1982-10-11 18:00:00 45. 45. 992. 39. 998. 35. 998. 40.
1982-10-12 00:00:00 40. 45. 990. 39. 998. 35. 998. 40.
1982-10-12 06:00:00 45. 45. 990. 49. 988. 40. 988. 40.
1982-10-12 12:00:00 55. 55. 985. 58. 982. 55. 985. 55.
1982-10-12 18:00:00 60. 60. 980. 58. 977. 60. 980. 55.
1982-10-13 00:00:00 65. 65. 975. 58. 975. 65. 975. 65.
1982-10-13 06:00:00 70. 70. 970. 68. 970. 70. 970. 65.
1982-10-13 12:00:00 75. 70. 970. 78. 965. 75. 965. 75.
1982-10-13 18:00:00 80. 75. 955. 87. 953. 80. 955. 75.
1982-10-14 00:00:00 100. 90. 945. 97. 947. 90. 945. 100.
1982-10-14 06:00:00 115. 100. 935. 107. 939. 100. 940. 100.
1982-10-14 12:00:00 105. 100. 935. 107. 933. 100. 935. 105.
1982-10-14 18:00:00 80. 80. 950. 87. 953. 80. 950. 105.
1982-10-15 00:00:00 55. 65. 970. 78. 967. 70. 965. 55.
1982-10-15 06:00:00 60. 65. 980. 68. 981. 65. 980. 55.
1982-10-15 12:00:00 65. 65. 985. 68. 983. 65. 980. 65.
1982-10-15 18:00:00 70. 70. 975. 68. 976. 70. 975. 65.
1982-10-16 00:00:00 75. 65. 970. 68. 972. 70. 970. 75.
jtwc_wp tokyo cma hko td9636
1982-10-16 06:00:00 75. 70. 970. 78. 970. 75. 965. 75.
1982-10-16 12:00:00 80. 70. 970. 87. 965. 80. 955. 80.
1982-10-16 18:00:00 80. 70. 975. 87. 960. 80. 955. 80.
1982-10-17 00:00:00 75. 70. 975. 87. 965. 75. 960. 75.
1982-10-17 06:00:00 75. 75. 975. 87. 965. 75. 960. 75.
1982-10-17 12:00:00 75. 70. 975. 78. 970. 75. 960. 75.
1982-10-17 18:00:00 75. 70. 980. 78. 970. 75. 965. 75.
1982-10-18 00:00:00 75. 70. 980. 78. 970. 75. 965. 75.
1982-10-18 06:00:00 70. 65. 985. 68. 975. 70. 970.
1982-10-18 12:00:00 50. 985. 49. 985. 45. 990.
1982-10-18 18:00:00 35. 990. 29. 995. 30. 995.
1982-10-19 00:00:00 35. 992. 23. 1003.
1982-10-19 06:00:00 1000. 19. 1005.
1982-10-19 12:00:00 1000.
1982-10-19 18:00:00 1004.
1982-10-20 00:00:00 1008.

top of page Links to source data

Source Source file Format
jtwc_wp bwp241982.txt ATCF
tokyo bst_all.txt:Line=31628:NANCY:8222 JMA text table
cma CH1982BST.txt:Storm=24:Nancy CMA text table
hko tc-besttrack-data-current.txt:Line=15585:NANCY HKO Text table
td9636 cons_worldwide_trop_cyclone_18710101-19891231-003:Line=28393 TD 9636